sensor_id;sensor_type;location;lat;lon;timestamp;P1;durP1;ratioP1;P2;durP2;ratioP2
1775;SDS011;885;42.626;23.200;2022-09-09T00:00:18;12.87;;;11.20;;
1775;SDS011;885;42.626;23.200;2022-09-09T00:02:48;11.17;;;10.03;;
1775;SDS011;885;42.626;23.200;2022-09-09T00:05:23;16.47;;;9.10;;
1775;SDS011;885;42.626;23.200;2022-09-09T00:07:57;9.50;;;8.20;;
1775;SDS011;885;42.626;23.200;2022-09-09T00:10:31;9.70;;;8.37;;
1775;SDS011;885;42.626;23.200;2022-09-09T00:13:02;8.33;;;7.53;;
1775;SDS011;885;42.626;23.200;2022-09-09T00:15:43;10.77;;;8.23;;
1775;SDS011;885;42.626;23.200;2022-09-09T00:18:21;9.50;;;8.03;;
1775;SDS011;885;42.626;23.200;2022-09-09T00:20:55;7.43;;;6.73;;
1775;SDS011;885;42.626;23.200;2022-09-09T00:23:28;9.67;;;8.67;;
1775;SDS011;885;42.626;23.200;2022-09-09T00:25:59;11.53;;;8.23;;
1775;SDS011;885;42.626;23.200;2022-09-09T00:28:32;10.27;;;8.40;;
1775;SDS011;885;42.626;23.200;2022-09-09T00:31:08;9.63;;;8.70;;
1775;SDS011;885;42.626;23.200;2022-09-09T00:33:38;10.47;;;9.37;;
1775;SDS011;885;42.626;23.200;2022-09-09T00:36:09;11.47;;;9.00;;
1775;SDS011;885;42.626;23.200;2022-09-09T00:38:42;8.63;;;7.83;;
1775;SDS011;885;42.626;23.200;2022-09-09T00:41:13;9.40;;;8.57;;
1775;SDS011;885;42.626;23.200;2022-09-09T00:43:50;10.60;;;9.50;;
1775;SDS011;885;42.626;23.200;2022-09-09T00:49:34;11.30;;;8.63;;
1775;SDS011;885;42.626;23.200;2022-09-09T00:52:15;10.50;;;8.50;;
1775;SDS011;885;42.626;23.200;2022-09-09T00:54:51;14.40;;;10.80;;
1775;SDS011;885;42.626;23.200;2022-09-09T00:57:28;11.17;;;9.63;;
1775;SDS011;885;42.626;23.200;2022-09-09T00:59:58;11.90;;;9.83;;
1775;SDS011;885;42.626;23.200;2022-09-09T01:02:31;10.03;;;9.03;;
1775;SDS011;885;42.626;23.200;2022-09-09T01:05:07;10.63;;;8.70;;
1775;SDS011;885;42.626;23.200;2022-09-09T01:07:53;11.00;;;8.90;;
1775;SDS011;885;42.626;23.200;2022-09-09T01:10:22;9.93;;;8.97;;
1775;SDS011;885;42.626;23.200;2022-09-09T01:12:58;12.47;;;11.40;;
1775;SDS011;885;42.626;23.200;2022-09-09T01:15:31;12.07;;;10.87;;
1775;SDS011;885;42.626;23.200;2022-09-09T01:17:59;11.57;;;9.73;;
1775;SDS011;885;42.626;23.200;2022-09-09T01:20:31;9.90;;;8.87;;
1775;SDS011;885;42.626;23.200;2022-09-09T01:26:10;10.20;;;9.10;;
1775;SDS011;885;42.626;23.200;2022-09-09T01:28:50;9.73;;;8.83;;
1775;SDS011;885;42.626;23.200;2022-09-09T01:31:19;13.33;;;9.13;;
1775;SDS011;885;42.626;23.200;2022-09-09T01:33:48;9.23;;;8.33;;
1775;SDS011;885;42.626;23.200;2022-09-09T01:36:17;11.47;;;10.27;;
1775;SDS011;885;42.626;23.200;2022-09-09T01:38:51;12.73;;;11.43;;
1775;SDS011;885;42.626;23.200;2022-09-09T01:41:19;11.43;;;9.77;;
1775;SDS011;885;42.626;23.200;2022-09-09T01:43:47;10.53;;;9.47;;
1775;SDS011;885;42.626;23.200;2022-09-09T01:46:14;11.67;;;10.40;;
1775;SDS011;885;42.626;23.200;2022-09-09T01:48:42;11.57;;;10.47;;
1775;SDS011;885;42.626;23.200;2022-09-09T01:51:09;12.03;;;10.27;;
1775;SDS011;885;42.626;23.200;2022-09-09T01:53:36;11.83;;;8.90;;
1775;SDS011;885;42.626;23.200;2022-09-09T01:56:08;9.73;;;8.37;;
1775;SDS011;885;42.626;23.200;2022-09-09T01:58:51;13.00;;;9.47;;
1775;SDS011;885;42.626;23.200;2022-09-09T02:01:32;10.57;;;9.47;;
1775;SDS011;885;42.626;23.200;2022-09-09T02:04:12;9.20;;;8.30;;
1775;SDS011;885;42.626;23.200;2022-09-09T02:06:57;9.60;;;8.70;;
1775;SDS011;885;42.626;23.200;2022-09-09T02:09:24;9.73;;;8.70;;
1775;SDS011;885;42.626;23.200;2022-09-09T02:11:55;9.67;;;8.73;;
1775;SDS011;885;42.626;23.200;2022-09-09T02:14:30;9.80;;;8.90;;
1775;SDS011;885;42.626;23.200;2022-09-09T02:17:03;12.37;;;11.10;;
1775;SDS011;885;42.626;23.200;2022-09-09T02:19:35;11.20;;;10.13;;
1775;SDS011;885;42.626;23.200;2022-09-09T02:22:05;11.20;;;9.97;;
1775;SDS011;885;42.626;23.200;2022-09-09T02:24:35;11.83;;;9.23;;
1775;SDS011;885;42.626;23.200;2022-09-09T02:27:05;12.90;;;9.03;;
1775;SDS011;885;42.626;23.200;2022-09-09T02:29:36;12.20;;;11.00;;
1775;SDS011;885;42.626;23.200;2022-09-09T02:32:07;11.47;;;10.47;;
1775;SDS011;885;42.626;23.200;2022-09-09T02:34:39;11.50;;;10.43;;
1775;SDS011;885;42.626;23.200;2022-09-09T02:37:09;11.53;;;10.33;;
1775;SDS011;885;42.626;23.200;2022-09-09T02:39:38;12.73;;;10.70;;
1775;SDS011;885;42.626;23.200;2022-09-09T02:42:05;12.27;;;11.03;;
1775;SDS011;885;42.626;23.200;2022-09-09T02:44:33;10.23;;;9.33;;
1775;SDS011;885;42.626;23.200;2022-09-09T02:47:09;13.60;;;9.37;;
1775;SDS011;885;42.626;23.200;2022-09-09T02:49:44;11.40;;;10.33;;
1775;SDS011;885;42.626;23.200;2022-09-09T02:52:18;12.57;;;11.43;;
1775;SDS011;885;42.626;23.200;2022-09-09T02:54:52;16.83;;;11.53;;
1775;SDS011;885;42.626;23.200;2022-09-09T02:57:26;11.23;;;10.27;;
1775;SDS011;885;42.626;23.200;2022-09-09T02:59:57;11.90;;;10.80;;
1775;SDS011;885;42.626;23.200;2022-09-09T03:02:26;11.33;;;10.33;;
1775;SDS011;885;42.626;23.200;2022-09-09T03:04:53;9.60;;;8.57;;
1775;SDS011;885;42.626;23.200;2022-09-09T03:07:20;11.90;;;10.33;;
1775;SDS011;885;42.626;23.200;2022-09-09T03:09:47;11.73;;;10.57;;
1775;SDS011;885;42.626;23.200;2022-09-09T03:12:14;10.90;;;9.80;;
1775;SDS011;885;42.626;23.200;2022-09-09T03:14:41;10.50;;;9.40;;
1775;SDS011;885;42.626;23.200;2022-09-09T03:17:09;10.20;;;9.20;;
1775;SDS011;885;42.626;23.200;2022-09-09T03:19:37;9.33;;;8.43;;
1775;SDS011;885;42.626;23.200;2022-09-09T03:22:05;12.53;;;10.30;;
1775;SDS011;885;42.626;23.200;2022-09-09T03:24:32;11.63;;;9.23;;
1775;SDS011;885;42.626;23.200;2022-09-09T03:26:58;10.30;;;9.27;;
1775;SDS011;885;42.626;23.200;2022-09-09T03:29:25;10.67;;;9.57;;
1775;SDS011;885;42.626;23.200;2022-09-09T03:31:52;11.20;;;10.00;;
1775;SDS011;885;42.626;23.200;2022-09-09T03:34:19;10.27;;;9.27;;
1775;SDS011;885;42.626;23.200;2022-09-09T03:36:47;11.13;;;9.97;;
1775;SDS011;885;42.626;23.200;2022-09-09T03:39:14;11.97;;;10.87;;
1775;SDS011;885;42.626;23.200;2022-09-09T03:41:41;10.90;;;9.90;;
1775;SDS011;885;42.626;23.200;2022-09-09T03:44:10;11.50;;;10.40;;
1775;SDS011;885;42.626;23.200;2022-09-09T03:46:37;11.67;;;10.47;;
1775;SDS011;885;42.626;23.200;2022-09-09T03:49:04;11.50;;;10.40;;
1775;SDS011;885;42.626;23.200;2022-09-09T03:51:31;11.43;;;9.73;;
1775;SDS011;885;42.626;23.200;2022-09-09T03:54:02;14.00;;;12.50;;
1775;SDS011;885;42.626;23.200;2022-09-09T03:56:30;15.90;;;12.60;;
1775;SDS011;885;42.626;23.200;2022-09-09T03:58:57;14.63;;;13.17;;
1775;SDS011;885;42.626;23.200;2022-09-09T04:01:23;14.00;;;12.50;;
1775;SDS011;885;42.626;23.200;2022-09-09T04:03:50;12.00;;;10.77;;
1775;SDS011;885;42.626;23.200;2022-09-09T04:06:17;12.93;;;10.00;;
1775;SDS011;885;42.626;23.200;2022-09-09T04:08:46;9.27;;;8.40;;
1775;SDS011;885;42.626;23.200;2022-09-09T04:11:15;11.23;;;10.07;;
1775;SDS011;885;42.626;23.200;2022-09-09T04:13:43;11.33;;;10.23;;
1775;SDS011;885;42.626;23.200;2022-09-09T04:16:10;10.23;;;8.30;;
1775;SDS011;885;42.626;23.200;2022-09-09T04:18:38;12.10;;;10.47;;
1775;SDS011;885;42.626;23.200;2022-09-09T04:21:05;9.50;;;8.50;;
1775;SDS011;885;42.626;23.200;2022-09-09T04:23:33;12.37;;;9.43;;
1775;SDS011;885;42.626;23.200;2022-09-09T04:26:01;12.73;;;8.90;;
1775;SDS011;885;42.626;23.200;2022-09-09T04:28:31;9.80;;;8.73;;
1775;SDS011;885;42.626;23.200;2022-09-09T04:31:03;9.50;;;8.53;;
1775;SDS011;885;42.626;23.200;2022-09-09T04:33:31;10.13;;;8.93;;
1775;SDS011;885;42.626;23.200;2022-09-09T04:35:57;8.83;;;8.00;;
1775;SDS011;885;42.626;23.200;2022-09-09T04:38:24;10.53;;;9.53;;
1775;SDS011;885;42.626;23.200;2022-09-09T04:40:51;16.37;;;10.60;;
1775;SDS011;885;42.626;23.200;2022-09-09T04:43:19;10.37;;;9.40;;
1775;SDS011;885;42.626;23.200;2022-09-09T04:45:48;12.17;;;9.73;;
1775;SDS011;885;42.626;23.200;2022-09-09T04:48:16;8.70;;;7.83;;
1775;SDS011;885;42.626;23.200;2022-09-09T04:50:43;11.23;;;9.53;;
1775;SDS011;885;42.626;23.200;2022-09-09T04:53:09;11.93;;;9.30;;
1775;SDS011;885;42.626;23.200;2022-09-09T04:55:36;9.43;;;8.40;;
1775;SDS011;885;42.626;23.200;2022-09-09T04:58:04;11.80;;;10.20;;
1775;SDS011;885;42.626;23.200;2022-09-09T05:00:31;11.70;;;10.53;;
1775;SDS011;885;42.626;23.200;2022-09-09T05:03:01;10.80;;;9.70;;
1775;SDS011;885;42.626;23.200;2022-09-09T05:05:29;13.67;;;10.33;;
1775;SDS011;885;42.626;23.200;2022-09-09T05:08:00;10.40;;;9.20;;
1775;SDS011;885;42.626;23.200;2022-09-09T05:10:28;10.57;;;9.43;;
1775;SDS011;885;42.626;23.200;2022-09-09T05:12:54;9.60;;;8.60;;
1775;SDS011;885;42.626;23.200;2022-09-09T05:15:21;10.27;;;9.27;;
1775;SDS011;885;42.626;23.200;2022-09-09T05:17:48;10.50;;;9.40;;
1775;SDS011;885;42.626;23.200;2022-09-09T05:20:18;9.63;;;8.63;;
1775;SDS011;885;42.626;23.200;2022-09-09T05:22:46;11.40;;;10.30;;
1775;SDS011;885;42.626;23.200;2022-09-09T05:25:13;12.50;;;10.33;;
1775;SDS011;885;42.626;23.200;2022-09-09T05:27:39;10.17;;;9.17;;
1775;SDS011;885;42.626;23.200;2022-09-09T05:30:07;13.80;;;9.63;;
1775;SDS011;885;42.626;23.200;2022-09-09T05:32:34;13.50;;;9.50;;
1775;SDS011;885;42.626;23.200;2022-09-09T05:35:01;13.83;;;11.23;;
1775;SDS011;885;42.626;23.200;2022-09-09T05:37:31;11.83;;;10.70;;
1775;SDS011;885;42.626;23.200;2022-09-09T05:39:58;11.30;;;9.93;;
1775;SDS011;885;42.626;23.200;2022-09-09T05:42:29;11.13;;;10.10;;
1775;SDS011;885;42.626;23.200;2022-09-09T05:44:56;11.00;;;9.90;;
1775;SDS011;885;42.626;23.200;2022-09-09T05:47:23;12.17;;;11.00;;
1775;SDS011;885;42.626;23.200;2022-09-09T05:49:52;12.03;;;10.83;;
1775;SDS011;885;42.626;23.200;2022-09-09T05:52:19;10.83;;;9.83;;
1775;SDS011;885;42.626;23.200;2022-09-09T05:54:47;11.23;;;10.23;;
1775;SDS011;885;42.626;23.200;2022-09-09T05:57:14;11.40;;;9.40;;
1775;SDS011;885;42.626;23.200;2022-09-09T05:59:41;12.03;;;10.60;;
1775;SDS011;885;42.626;23.200;2022-09-09T06:02:07;10.87;;;9.80;;
1775;SDS011;885;42.626;23.200;2022-09-09T06:04:34;10.67;;;9.77;;
1775;SDS011;885;42.626;23.200;2022-09-09T06:07:02;11.57;;;10.57;;
1775;SDS011;885;42.626;23.200;2022-09-09T06:09:28;11.17;;;10.00;;
1775;SDS011;885;42.626;23.200;2022-09-09T06:11:57;10.87;;;9.87;;
1775;SDS011;885;42.626;23.200;2022-09-09T06:14:23;11.03;;;9.93;;
1775;SDS011;885;42.626;23.200;2022-09-09T06:16:52;12.57;;;9.40;;
1775;SDS011;885;42.626;23.200;2022-09-09T06:19:19;11.53;;;9.53;;
1775;SDS011;885;42.626;23.200;2022-09-09T06:21:45;9.63;;;8.70;;
1775;SDS011;885;42.626;23.200;2022-09-09T06:24:12;10.23;;;9.20;;
1775;SDS011;885;42.626;23.200;2022-09-09T06:26:42;14.30;;;10.03;;
1775;SDS011;885;42.626;23.200;2022-09-09T06:29:10;12.80;;;8.90;;
1775;SDS011;885;42.626;23.200;2022-09-09T06:31:37;10.17;;;9.27;;
1775;SDS011;885;42.626;23.200;2022-09-09T06:34:05;10.50;;;9.23;;
1775;SDS011;885;42.626;23.200;2022-09-09T06:36:35;12.30;;;9.63;;
1775;SDS011;885;42.626;23.200;2022-09-09T06:39:03;11.53;;;10.50;;
1775;SDS011;885;42.626;23.200;2022-09-09T06:41:32;10.93;;;9.83;;
1775;SDS011;885;42.626;23.200;2022-09-09T06:43:59;13.87;;;9.17;;
1775;SDS011;885;42.626;23.200;2022-09-09T06:46:28;9.87;;;8.83;;
1775;SDS011;885;42.626;23.200;2022-09-09T06:48:58;11.13;;;10.07;;
1775;SDS011;885;42.626;23.200;2022-09-09T06:51:26;10.17;;;9.20;;
1775;SDS011;885;42.626;23.200;2022-09-09T06:53:54;10.23;;;9.17;;
1775;SDS011;885;42.626;23.200;2022-09-09T06:56:22;14.83;;;10.43;;
1775;SDS011;885;42.626;23.200;2022-09-09T06:58:51;10.47;;;9.50;;
1775;SDS011;885;42.626;23.200;2022-09-09T07:01:20;11.43;;;10.40;;
1775;SDS011;885;42.626;23.200;2022-09-09T07:03:50;10.73;;;9.33;;
1775;SDS011;885;42.626;23.200;2022-09-09T07:06:18;11.43;;;10.40;;
1775;SDS011;885;42.626;23.200;2022-09-09T07:08:48;14.43;;;9.60;;
1775;SDS011;885;42.626;23.200;2022-09-09T07:11:16;11.43;;;10.37;;
1775;SDS011;885;42.626;23.200;2022-09-09T07:13:43;11.87;;;10.30;;
1775;SDS011;885;42.626;23.200;2022-09-09T07:16:10;10.53;;;9.43;;
1775;SDS011;885;42.626;23.200;2022-09-09T07:18:38;9.00;;;8.10;;
1775;SDS011;885;42.626;23.200;2022-09-09T07:21:08;10.60;;;9.10;;
1775;SDS011;885;42.626;23.200;2022-09-09T07:23:37;11.03;;;8.07;;
1775;SDS011;885;42.626;23.200;2022-09-09T07:26:07;8.60;;;7.70;;
1775;SDS011;885;42.626;23.200;2022-09-09T07:28:35;13.00;;;8.70;;
1775;SDS011;885;42.626;23.200;2022-09-09T07:31:03;16.57;;;9.40;;
1775;SDS011;885;42.626;23.200;2022-09-09T07:33:31;9.67;;;8.77;;
1775;SDS011;885;42.626;23.200;2022-09-09T07:36:03;11.20;;;8.87;;
1775;SDS011;885;42.626;23.200;2022-09-09T07:38:37;13.93;;;8.80;;
1775;SDS011;885;42.626;23.200;2022-09-09T07:41:05;9.10;;;7.77;;
1775;SDS011;885;42.626;23.200;2022-09-09T07:43:33;10.63;;;9.27;;
1775;SDS011;885;42.626;23.200;2022-09-09T07:46:00;11.13;;;8.80;;
1775;SDS011;885;42.626;23.200;2022-09-09T07:48:27;8.80;;;7.90;;
1775;SDS011;885;42.626;23.200;2022-09-09T07:51:02;11.23;;;8.80;;
1775;SDS011;885;42.626;23.200;2022-09-09T07:53:35;11.63;;;8.03;;
1775;SDS011;885;42.626;23.200;2022-09-09T07:56:03;9.90;;;8.50;;
1775;SDS011;885;42.626;23.200;2022-09-09T07:58:31;12.60;;;9.17;;
1775;SDS011;885;42.626;23.200;2022-09-09T08:00:58;10.77;;;8.33;;
1775;SDS011;885;42.626;23.200;2022-09-09T08:03:25;11.87;;;8.20;;
1775;SDS011;885;42.626;23.200;2022-09-09T08:05:52;11.53;;;9.40;;
1775;SDS011;885;42.626;23.200;2022-09-09T08:08:21;9.07;;;8.20;;
1775;SDS011;885;42.626;23.200;2022-09-09T08:10:49;10.30;;;7.00;;
1775;SDS011;885;42.626;23.200;2022-09-09T08:13:18;9.47;;;8.40;;
1775;SDS011;885;42.626;23.200;2022-09-09T08:15:45;8.70;;;7.07;;
1775;SDS011;885;42.626;23.200;2022-09-09T08:18:11;9.27;;;7.57;;
1775;SDS011;885;42.626;23.200;2022-09-09T08:20:38;10.67;;;7.30;;
1775;SDS011;885;42.626;23.200;2022-09-09T08:23:05;10.30;;;8.37;;
1775;SDS011;885;42.626;23.200;2022-09-09T08:25:32;8.10;;;7.30;;
1775;SDS011;885;42.626;23.200;2022-09-09T08:28:01;9.13;;;7.40;;
1775;SDS011;885;42.626;23.200;2022-09-09T08:30:29;9.03;;;8.17;;
1775;SDS011;885;42.626;23.200;2022-09-09T08:32:56;8.77;;;7.97;;
1775;SDS011;885;42.626;23.200;2022-09-09T08:35:22;9.60;;;7.23;;
1775;SDS011;885;42.626;23.200;2022-09-09T08:37:53;7.83;;;7.10;;
1775;SDS011;885;42.626;23.200;2022-09-09T08:40:22;10.63;;;7.60;;
1775;SDS011;885;42.626;23.200;2022-09-09T08:42:55;8.47;;;7.60;;
1775;SDS011;885;42.626;23.200;2022-09-09T08:45:33;9.20;;;7.77;;
1775;SDS011;885;42.626;23.200;2022-09-09T08:48:15;9.13;;;7.80;;
1775;SDS011;885;42.626;23.200;2022-09-09T08:50:56;9.20;;;8.40;;
1775;SDS011;885;42.626;23.200;2022-09-09T08:53:27;7.93;;;7.13;;
1775;SDS011;885;42.626;23.200;2022-09-09T08:55:59;11.90;;;8.27;;
1775;SDS011;885;42.626;23.200;2022-09-09T08:58:29;9.47;;;8.23;;
1775;SDS011;885;42.626;23.200;2022-09-09T09:04:06;9.03;;;7.03;;
1775;SDS011;885;42.626;23.200;2022-09-09T09:06:45;9.00;;;8.10;;
1775;SDS011;885;42.626;23.200;2022-09-09T09:09:18;8.87;;;7.87;;
1775;SDS011;885;42.626;23.200;2022-09-09T09:11:54;9.23;;;7.90;;
1775;SDS011;885;42.626;23.200;2022-09-09T09:14:26;12.07;;;7.87;;
1775;SDS011;885;42.626;23.200;2022-09-09T09:16:57;8.70;;;7.77;;
1775;SDS011;885;42.626;23.200;2022-09-09T09:19:30;9.47;;;7.60;;
1775;SDS011;885;42.626;23.200;2022-09-09T09:22:02;9.30;;;8.30;;
1775;SDS011;885;42.626;23.200;2022-09-09T09:24:40;14.60;;;9.33;;
1775;SDS011;885;42.626;23.200;2022-09-09T09:27:13;9.60;;;8.33;;
1775;SDS011;885;42.626;23.200;2022-09-09T09:29:42;15.03;;;9.63;;
1775;SDS011;885;42.626;23.200;2022-09-09T09:32:13;10.00;;;8.43;;
1775;SDS011;885;42.626;23.200;2022-09-09T09:34:48;10.53;;;8.67;;
1775;SDS011;885;42.626;23.200;2022-09-09T09:37:16;9.07;;;8.27;;
1775;SDS011;885;42.626;23.200;2022-09-09T09:39:48;10.87;;;9.20;;
1775;SDS011;885;42.626;23.200;2022-09-09T09:42:16;12.20;;;10.00;;
1775;SDS011;885;42.626;23.200;2022-09-09T09:44:43;10.83;;;9.73;;
1775;SDS011;885;42.626;23.200;2022-09-09T09:47:12;10.57;;;9.53;;
1775;SDS011;885;42.626;23.200;2022-09-09T09:49:50;9.17;;;8.40;;
1775;SDS011;885;42.626;23.200;2022-09-09T09:52:19;10.70;;;9.60;;
1775;SDS011;885;42.626;23.200;2022-09-09T09:54:48;9.33;;;8.40;;
1775;SDS011;885;42.626;23.200;2022-09-09T09:57:16;9.93;;;8.10;;
1775;SDS011;885;42.626;23.200;2022-09-09T09:59:44;10.03;;;9.03;;
1775;SDS011;885;42.626;23.200;2022-09-09T10:02:17;9.47;;;8.47;;
1775;SDS011;885;42.626;23.200;2022-09-09T10:04:46;11.17;;;10.07;;
1775;SDS011;885;42.626;23.200;2022-09-09T10:07:16;12.30;;;8.60;;
1775;SDS011;885;42.626;23.200;2022-09-09T10:09:45;10.27;;;8.73;;
1775;SDS011;885;42.626;23.200;2022-09-09T10:12:19;15.10;;;10.13;;
1775;SDS011;885;42.626;23.200;2022-09-09T10:14:55;13.37;;;9.80;;
1775;SDS011;885;42.626;23.200;2022-09-09T10:17:32;10.47;;;9.43;;
1775;SDS011;885;42.626;23.200;2022-09-09T10:20:13;11.47;;;10.23;;
1775;SDS011;885;42.626;23.200;2022-09-09T10:22:51;10.90;;;9.73;;
1775;SDS011;885;42.626;23.200;2022-09-09T10:25:25;11.37;;;10.03;;
1775;SDS011;885;42.626;23.200;2022-09-09T10:28:08;18.77;;;12.20;;
1775;SDS011;885;42.626;23.200;2022-09-09T10:30:50;14.03;;;11.60;;
1775;SDS011;885;42.626;23.200;2022-09-09T10:33:28;14.97;;;11.57;;
1775;SDS011;885;42.626;23.200;2022-09-09T10:36:01;14.87;;;10.63;;
1775;SDS011;885;42.626;23.200;2022-09-09T10:38:39;13.23;;;10.60;;
1775;SDS011;885;42.626;23.200;2022-09-09T10:41:13;13.40;;;10.20;;
1775;SDS011;885;42.626;23.200;2022-09-09T10:43:57;12.40;;;9.80;;
1775;SDS011;885;42.626;23.200;2022-09-09T10:46:39;12.27;;;10.97;;
1775;SDS011;885;42.626;23.200;2022-09-09T10:49:22;13.83;;;11.50;;
1775;SDS011;885;42.626;23.200;2022-09-09T10:52:07;13.83;;;11.10;;
1775;SDS011;885;42.626;23.200;2022-09-09T10:54:49;12.43;;;11.27;;
1775;SDS011;885;42.626;23.200;2022-09-09T10:57:25;12.53;;;11.23;;
1775;SDS011;885;42.626;23.200;2022-09-09T10:59:57;12.70;;;10.53;;
1775;SDS011;885;42.626;23.200;2022-09-09T11:02:28;14.50;;;11.07;;
1775;SDS011;885;42.626;23.200;2022-09-09T11:04:58;11.40;;;10.10;;
1775;SDS011;885;42.626;23.200;2022-09-09T11:07:34;15.07;;;10.37;;
1775;SDS011;885;42.626;23.200;2022-09-09T11:10:11;12.80;;;10.90;;
1775;SDS011;885;42.626;23.200;2022-09-09T11:12:46;15.17;;;10.60;;
1775;SDS011;885;42.626;23.200;2022-09-09T11:15:17;13.33;;;11.30;;
1775;SDS011;885;42.626;23.200;2022-09-09T11:17:50;12.07;;;10.80;;
1775;SDS011;885;42.626;23.200;2022-09-09T11:20:23;12.03;;;10.73;;
1775;SDS011;885;42.626;23.200;2022-09-09T11:22:52;11.17;;;10.17;;
1775;SDS011;885;42.626;23.200;2022-09-09T11:25:26;11.23;;;10.20;;
1775;SDS011;885;42.626;23.200;2022-09-09T11:28:04;12.60;;;10.67;;
1775;SDS011;885;42.626;23.200;2022-09-09T11:30:43;11.77;;;10.30;;
1775;SDS011;885;42.626;23.200;2022-09-09T11:33:31;12.00;;;10.20;;
1775;SDS011;885;42.626;23.200;2022-09-09T11:36:16;12.10;;;9.63;;
1775;SDS011;885;42.626;23.200;2022-09-09T11:39:07;11.90;;;10.57;;
1775;SDS011;885;42.626;23.200;2022-09-09T11:41:55;12.37;;;10.60;;
1775;SDS011;885;42.626;23.200;2022-09-09T11:44:32;11.83;;;9.70;;
1775;SDS011;885;42.626;23.200;2022-09-09T11:46:59;11.40;;;10.20;;
1775;SDS011;885;42.626;23.200;2022-09-09T11:49:27;15.63;;;10.37;;
1775;SDS011;885;42.626;23.200;2022-09-09T11:51:57;11.80;;;9.90;;
1775;SDS011;885;42.626;23.200;2022-09-09T11:54:28;14.17;;;9.23;;
1775;SDS011;885;42.626;23.200;2022-09-09T11:56:57;10.93;;;10.00;;
1775;SDS011;885;42.626;23.200;2022-09-09T11:59:25;13.83;;;10.40;;
1775;SDS011;885;42.626;23.200;2022-09-09T12:01:55;13.00;;;8.90;;
1775;SDS011;885;42.626;23.200;2022-09-09T12:04:33;13.30;;;9.57;;
1775;SDS011;885;42.626;23.200;2022-09-09T12:07:22;11.63;;;10.17;;
1775;SDS011;885;42.626;23.200;2022-09-09T12:09:56;11.30;;;9.53;;
1775;SDS011;885;42.626;23.200;2022-09-09T12:12:28;11.53;;;9.53;;
1775;SDS011;885;42.626;23.200;2022-09-09T12:15:17;9.17;;;8.13;;
1775;SDS011;885;42.626;23.200;2022-09-09T12:17:51;16.80;;;8.57;;
1775;SDS011;885;42.626;23.200;2022-09-09T12:20:20;11.57;;;9.10;;
1775;SDS011;885;42.626;23.200;2022-09-09T12:22:56;8.10;;;7.20;;
1775;SDS011;885;42.626;23.200;2022-09-09T12:25:45;11.50;;;7.63;;
1775;SDS011;885;42.626;23.200;2022-09-09T12:28:22;9.30;;;7.27;;
1775;SDS011;885;42.626;23.200;2022-09-09T12:30:55;9.40;;;6.77;;
1775;SDS011;885;42.626;23.200;2022-09-09T12:33:33;11.47;;;7.77;;
1775;SDS011;885;42.626;23.200;2022-09-09T12:36:01;7.40;;;6.70;;
1775;SDS011;885;42.626;23.200;2022-09-09T12:38:34;7.87;;;7.07;;
1775;SDS011;885;42.626;23.200;2022-09-09T12:41:03;9.00;;;7.80;;
1775;SDS011;885;42.626;23.200;2022-09-09T12:43:30;7.83;;;7.13;;
1775;SDS011;885;42.626;23.200;2022-09-09T12:45:57;8.30;;;7.50;;
1775;SDS011;885;42.626;23.200;2022-09-09T12:48:34;8.47;;;7.60;;
1775;SDS011;885;42.626;23.200;2022-09-09T12:51:03;11.20;;;7.73;;
1775;SDS011;885;42.626;23.200;2022-09-09T12:53:35;14.80;;;7.27;;
1775;SDS011;885;42.626;23.200;2022-09-09T12:56:04;10.50;;;7.40;;
1775;SDS011;885;42.626;23.200;2022-09-09T12:58:33;9.37;;;7.73;;
1775;SDS011;885;42.626;23.200;2022-09-09T13:01:02;9.30;;;7.60;;
1775;SDS011;885;42.626;23.200;2022-09-09T13:03:31;8.10;;;7.30;;
1775;SDS011;885;42.626;23.200;2022-09-09T13:06:09;10.53;;;7.50;;
1775;SDS011;885;42.626;23.200;2022-09-09T13:08:39;11.47;;;7.73;;
1775;SDS011;885;42.626;23.200;2022-09-09T13:11:06;10.17;;;8.50;;
1775;SDS011;885;42.626;23.200;2022-09-09T13:13:39;8.03;;;7.10;;
1775;SDS011;885;42.626;23.200;2022-09-09T13:16:22;7.47;;;6.77;;
1775;SDS011;885;42.626;23.200;2022-09-09T13:18:56;11.60;;;7.77;;
1775;SDS011;885;42.626;23.200;2022-09-09T13:21:31;10.80;;;7.97;;
1775;SDS011;885;42.626;23.200;2022-09-09T13:24:01;8.33;;;7.53;;
1775;SDS011;885;42.626;23.200;2022-09-09T13:26:29;10.00;;;7.77;;
1775;SDS011;885;42.626;23.200;2022-09-09T13:29:07;8.23;;;7.00;;
1775;SDS011;885;42.626;23.200;2022-09-09T13:31:44;8.30;;;7.47;;
1775;SDS011;885;42.626;23.200;2022-09-09T13:34:11;8.57;;;7.70;;
1775;SDS011;885;42.626;23.200;2022-09-09T13:36:39;8.70;;;7.60;;
1775;SDS011;885;42.626;23.200;2022-09-09T13:39:15;10.77;;;7.20;;
1775;SDS011;885;42.626;23.200;2022-09-09T13:41:44;7.23;;;6.63;;
1775;SDS011;885;42.626;23.200;2022-09-09T13:44:17;9.93;;;6.77;;
1775;SDS011;885;42.626;23.200;2022-09-09T13:46:58;7.60;;;6.90;;
1775;SDS011;885;42.626;23.200;2022-09-09T13:49:29;11.80;;;8.83;;
1775;SDS011;885;42.626;23.200;2022-09-09T13:52:05;10.17;;;8.57;;
1775;SDS011;885;42.626;23.200;2022-09-09T13:54:37;8.43;;;7.27;;
1775;SDS011;885;42.626;23.200;2022-09-09T13:57:04;9.40;;;8.27;;
1775;SDS011;885;42.626;23.200;2022-09-09T13:59:31;9.40;;;8.40;;
1775;SDS011;885;42.626;23.200;2022-09-09T14:01:59;10.87;;;6.97;;
1775;SDS011;885;42.626;23.200;2022-09-09T14:04:26;8.00;;;7.20;;
1775;SDS011;885;42.626;23.200;2022-09-09T14:06:53;7.93;;;6.90;;
1775;SDS011;885;42.626;23.200;2022-09-09T14:09:21;9.70;;;8.47;;
1775;SDS011;885;42.626;23.200;2022-09-09T14:11:49;8.07;;;7.27;;
1775;SDS011;885;42.626;23.200;2022-09-09T14:14:16;8.00;;;7.17;;
1775;SDS011;885;42.626;23.200;2022-09-09T14:16:42;10.47;;;7.40;;
1775;SDS011;885;42.626;23.200;2022-09-09T14:19:09;7.73;;;6.80;;
1775;SDS011;885;42.626;23.200;2022-09-09T14:21:36;9.80;;;7.27;;
1775;SDS011;885;42.626;23.200;2022-09-09T14:24:04;8.67;;;7.17;;
1775;SDS011;885;42.626;23.200;2022-09-09T14:26:31;7.60;;;6.87;;
1775;SDS011;885;42.626;23.200;2022-09-09T14:28:59;8.20;;;6.13;;
1775;SDS011;885;42.626;23.200;2022-09-09T14:31:26;8.10;;;6.43;;
1775;SDS011;885;42.626;23.200;2022-09-09T14:33:53;9.07;;;6.50;;
1775;SDS011;885;42.626;23.200;2022-09-09T14:36:20;8.10;;;7.40;;
1775;SDS011;885;42.626;23.200;2022-09-09T14:38:47;8.70;;;6.57;;
1775;SDS011;885;42.626;23.200;2022-09-09T14:41:15;7.67;;;6.87;;
1775;SDS011;885;42.626;23.200;2022-09-09T14:43:43;9.00;;;7.50;;
1775;SDS011;885;42.626;23.200;2022-09-09T14:46:13;6.80;;;6.20;;
1775;SDS011;885;42.626;23.200;2022-09-09T14:48:41;11.40;;;6.20;;
1775;SDS011;885;42.626;23.200;2022-09-09T14:51:09;10.63;;;5.90;;
1775;SDS011;885;42.626;23.200;2022-09-09T14:53:39;7.73;;;6.17;;
1775;SDS011;885;42.626;23.200;2022-09-09T14:56:07;6.93;;;6.13;;
1775;SDS011;885;42.626;23.200;2022-09-09T14:58:35;11.97;;;7.13;;
1775;SDS011;885;42.626;23.200;2022-09-09T15:01:03;8.30;;;7.03;;
1775;SDS011;885;42.626;23.200;2022-09-09T15:03:33;6.77;;;6.10;;
1775;SDS011;885;42.626;23.200;2022-09-09T15:06:04;12.73;;;6.50;;
1775;SDS011;885;42.626;23.200;2022-09-09T15:08:33;10.57;;;6.30;;
1775;SDS011;885;42.626;23.200;2022-09-09T15:11:00;8.03;;;6.03;;
1775;SDS011;885;42.626;23.200;2022-09-09T15:13:28;14.50;;;7.30;;
1775;SDS011;885;42.626;23.200;2022-09-09T15:15:54;9.20;;;7.00;;
1775;SDS011;885;42.626;23.200;2022-09-09T15:18:22;9.27;;;6.90;;
1775;SDS011;885;42.626;23.200;2022-09-09T15:20:51;9.60;;;8.17;;
1775;SDS011;885;42.626;23.200;2022-09-09T15:23:18;8.47;;;7.50;;
1775;SDS011;885;42.626;23.200;2022-09-09T15:25:51;8.70;;;7.80;;
1775;SDS011;885;42.626;23.200;2022-09-09T15:28:18;9.87;;;7.50;;
1775;SDS011;885;42.626;23.200;2022-09-09T15:30:47;8.27;;;7.50;;
1775;SDS011;885;42.626;23.200;2022-09-09T15:33:14;9.40;;;7.27;;